Terminal Aerodrome Forecast
Issued by NWS Mt. Holly, NJ

Home | Current Version | Previous Version | Text Only | Print | Product List | Glossary On
Versions: 1 2 3 4 5 6 7 8 9 10 11 12 13 14 15 16 17 18
930
FTUS41 KPHI 281145
TAFACY
TAF
KACY 281145Z 2812/2912 00000KT 4SM BR SCT250
     FM281230 16004KT P6SM SCT250
     FM281700 17008KT P6SM SCT050
      TEMPO 2819/2822 4SM SHRA BKN035
     FM282300 17006KT P6SM BKN050
      TEMPO 2903/2905 -SHRA OVC035
     FM290500 14008KT 4SM -SHRA BR OVC035
     FM290800 16008KT 3SM SHRA BR OVC025=

USA.gov is the U.S. government's official web portal to all federal, state and local government web resources and services.